Terminal Aerodrome Forecast
Issued by NWS Quad Cities IA IL

Home | Current Version | Previous Version | Text Only | Print | Product List | Glossary On
Versions: 1 2 3 4 5 6 7 8 9 10 11 12 13 14 15 16 17 18 19 20 21 22
000
FTUS43 KDVN 191300 AAA
TAFDBQ
TAF AMD
KDBQ 191325Z 1913/2012 25006KT 5SM BR BKN008
     FM191430 25006KT 6SM BR SCT008
     FM191600 28011KT P6SM FEW035 SCT250
     FM200100 30003KT P6SM SKC
     FM200800 VRB02KT 3SM BR SKC=

USA.gov is the U.S. government's official web portal to all federal, state and local government web resources and services.